sensor_id;sensor_type;location;lat;lon;timestamp;pressure;altitude;pressure_sealevel;temperature;humidity
30081;BME280;16902;50.816;12.828;2023-02-28T00:02:07;98944.03;;;-3.24;100.00
30081;BME280;16902;50.816;12.828;2023-02-28T00:07:09;98937.97;;;-3.21;100.00
30081;BME280;16902;50.816;12.828;2023-02-28T00:12:12;98937.84;;;-3.18;100.00
30081;BME280;16902;50.816;12.828;2023-02-28T00:17:13;98943.59;;;-3.13;100.00
30081;BME280;16902;50.816;12.828;2023-02-28T00:22:17;98939.31;;;-3.13;100.00
30081;BME280;16902;50.816;12.828;2023-02-28T00:27:19;98932.22;;;-3.06;100.00
30081;BME280;16902;50.816;12.828;2023-02-28T00:32:21;98932.31;;;-3.07;100.00
30081;BME280;16902;50.816;12.828;2023-02-28T00:37:23;98937.59;;;-3.12;100.00
30081;BME280;16902;50.816;12.828;2023-02-28T00:42:25;98935.75;;;-3.08;100.00
30081;BME280;16902;50.816;12.828;2023-02-28T00:47:27;98935.03;;;-3.12;100.00
30081;BME280;16902;50.816;12.828;2023-02-28T00:52:29;98929.25;;;-3.16;100.00
30081;BME280;16902;50.816;12.828;2023-02-28T00:57:31;98930.84;;;-3.13;100.00
30081;BME280;16902;50.816;12.828;2023-02-28T01:02:33;98920.59;;;-3.12;100.00
30081;BME280;16902;50.816;12.828;2023-02-28T01:07:35;98919.75;;;-3.12;100.00
30081;BME280;16902;50.816;12.828;2023-02-28T01:12:37;98931.22;;;-3.22;100.00
30081;BME280;16902;50.816;12.828;2023-02-28T01:17:39;98917.69;;;-3.23;100.00
30081;BME280;16902;50.816;12.828;2023-02-28T01:22:40;98916.97;;;-3.26;100.00
30081;BME280;16902;50.816;12.828;2023-02-28T01:27:42;98919.47;;;-3.45;100.00
30081;BME280;16902;50.816;12.828;2023-02-28T01:32:44;98915.66;;;-3.77;100.00
30081;BME280;16902;50.816;12.828;2023-02-28T01:37:46;98919.63;;;-3.91;100.00
30081;BME280;16902;50.816;12.828;2023-02-28T01:42:48;98918.97;;;-4.18;100.00
30081;BME280;16902;50.816;12.828;2023-02-28T01:47:51;98918.56;;;-4.29;100.00
30081;BME280;16902;50.816;12.828;2023-02-28T01:52:58;98915.66;;;-4.42;100.00
30081;BME280;16902;50.816;12.828;2023-02-28T01:58:04;98914.56;;;-4.58;100.00
30081;BME280;16902;50.816;12.828;2023-02-28T02:03:12;98909.34;;;-4.55;100.00
30081;BME280;16902;50.816;12.828;2023-02-28T02:08:23;98912.38;;;-4.67;100.00
30081;BME280;16902;50.816;12.828;2023-02-28T02:14:40;98896.97;;;-4.86;100.00
30081;BME280;16902;50.816;12.828;2023-02-28T02:35:12;98884.56;;;-5.17;100.00
30081;BME280;16902;50.816;12.828;2023-02-28T02:40:19;98887.81;;;-5.38;100.00
30081;BME280;16902;50.816;12.828;2023-02-28T02:45:31;98885.56;;;-5.46;100.00
30081;BME280;16902;50.816;12.828;2023-02-28T02:50:46;98894.09;;;-5.49;100.00
30081;BME280;16902;50.816;12.828;2023-02-28T02:55:52;98898.13;;;-5.43;100.00
30081;BME280;16902;50.816;12.828;2023-02-28T03:01:00;98897.59;;;-5.28;100.00
30081;BME280;16902;50.816;12.828;2023-02-28T03:06:05;98902.94;;;-5.10;100.00
30081;BME280;16902;50.816;12.828;2023-02-28T03:11:12;98903.53;;;-5.04;100.00
30081;BME280;16902;50.816;12.828;2023-02-28T03:16:54;98899.91;;;-4.97;100.00
30081;BME280;16902;50.816;12.828;2023-02-28T03:22:18;98908.53;;;-4.79;100.00
30081;BME280;16902;50.816;12.828;2023-02-28T03:27:29;98895.66;;;-4.73;100.00
30081;BME280;16902;50.816;12.828;2023-02-28T03:32:52;98909.75;;;-4.66;100.00
30081;BME280;16902;50.816;12.828;2023-02-28T03:38:11;98898.34;;;-4.54;100.00
30081;BME280;16902;50.816;12.828;2023-02-28T03:43:21;98899.47;;;-4.39;100.00
30081;BME280;16902;50.816;12.828;2023-02-28T03:48:50;98890.88;;;-4.36;100.00
30081;BME280;16902;50.816;12.828;2023-02-28T03:53:56;98902.59;;;-4.32;100.00
30081;BME280;16902;50.816;12.828;2023-02-28T04:04:39;98903.81;;;-4.21;100.00
30081;BME280;16902;50.816;12.828;2023-02-28T04:09:46;98903.78;;;-4.19;100.00
30081;BME280;16902;50.816;12.828;2023-02-28T04:14:49;98903.97;;;-4.24;100.00
30081;BME280;16902;50.816;12.828;2023-02-28T04:19:51;98902.00;;;-4.17;100.00
30081;BME280;16902;50.816;12.828;2023-02-28T04:24:53;98896.81;;;-4.14;100.00
30081;BME280;16902;50.816;12.828;2023-02-28T04:29:57;98902.72;;;-4.14;100.00
30081;BME280;16902;50.816;12.828;2023-02-28T04:34:59;98912.72;;;-4.09;100.00
30081;BME280;16902;50.816;12.828;2023-02-28T04:40:01;98915.19;;;-4.07;100.00
30081;BME280;16902;50.816;12.828;2023-02-28T04:45:04;98923.28;;;-3.98;100.00
30081;BME280;16902;50.816;12.828;2023-02-28T04:50:07;98918.31;;;-4.01;100.00
30081;BME280;16902;50.816;12.828;2023-02-28T04:55:09;98920.72;;;-3.98;100.00
30081;BME280;16902;50.816;12.828;2023-02-28T05:00:12;98924.28;;;-4.02;100.00
30081;BME280;16902;50.816;12.828;2023-02-28T05:05:16;98930.00;;;-3.97;100.00
30081;BME280;16902;50.816;12.828;2023-02-28T05:10:19;98928.50;;;-4.01;100.00
30081;BME280;16902;50.816;12.828;2023-02-28T05:15:21;98932.09;;;-4.06;100.00
30081;BME280;16902;50.816;12.828;2023-02-28T05:20:23;98937.00;;;-4.02;100.00
30081;BME280;16902;50.816;12.828;2023-02-28T05:25:25;98933.81;;;-4.07;100.00
30081;BME280;16902;50.816;12.828;2023-02-28T05:30:27;98928.84;;;-4.10;100.00
30081;BME280;16902;50.816;12.828;2023-02-28T05:35:29;98941.09;;;-4.20;100.00
30081;BME280;16902;50.816;12.828;2023-02-28T05:40:30;98943.81;;;-4.24;100.00
30081;BME280;16902;50.816;12.828;2023-02-28T05:45:32;98947.09;;;-4.44;100.00
30081;BME280;16902;50.816;12.828;2023-02-28T05:50:34;98939.34;;;-4.65;100.00
30081;BME280;16902;50.816;12.828;2023-02-28T05:55:36;98941.75;;;-4.83;100.00
30081;BME280;16902;50.816;12.828;2023-02-28T06:00:39;98939.75;;;-4.99;100.00
30081;BME280;16902;50.816;12.828;2023-02-28T06:05:42;98953.53;;;-5.06;100.00
30081;BME280;16902;50.816;12.828;2023-02-28T06:10:44;98954.59;;;-5.11;100.00
30081;BME280;16902;50.816;12.828;2023-02-28T06:15:46;98965.66;;;-5.14;100.00
30081;BME280;16902;50.816;12.828;2023-02-28T06:20:55;98957.28;;;-5.16;100.00
30081;BME280;16902;50.816;12.828;2023-02-28T06:25:57;98968.94;;;-5.10;100.00
30081;BME280;16902;50.816;12.828;2023-02-28T06:31:04;98980.34;;;-4.97;100.00
30081;BME280;16902;50.816;12.828;2023-02-28T06:36:07;98987.13;;;-4.74;100.00
30081;BME280;16902;50.816;12.828;2023-02-28T06:41:10;98984.72;;;-4.54;100.00
30081;BME280;16902;50.816;12.828;2023-02-28T06:46:13;99007.03;;;-4.38;100.00
30081;BME280;16902;50.816;12.828;2023-02-28T06:51:18;99011.91;;;-4.32;100.00
30081;BME280;16902;50.816;12.828;2023-02-28T06:56:23;99008.03;;;-4.19;100.00
30081;BME280;16902;50.816;12.828;2023-02-28T07:01:25;99013.59;;;-4.09;100.00
30081;BME280;16902;50.816;12.828;2023-02-28T07:06:30;99015.00;;;-4.02;100.00
30081;BME280;16902;50.816;12.828;2023-02-28T07:11:32;99023.94;;;-3.92;100.00
30081;BME280;16902;50.816;12.828;2023-02-28T07:16:34;99018.31;;;-3.77;100.00
30081;BME280;16902;50.816;12.828;2023-02-28T07:21:36;99023.84;;;-3.67;100.00
30081;BME280;16902;50.816;12.828;2023-02-28T07:26:38;99024.19;;;-3.54;100.00
30081;BME280;16902;50.816;12.828;2023-02-28T07:31:40;99025.47;;;-3.44;100.00
30081;BME280;16902;50.816;12.828;2023-02-28T07:36:42;99021.84;;;-3.39;100.00
30081;BME280;16902;50.816;12.828;2023-02-28T07:41:44;99029.72;;;-3.23;100.00
30081;BME280;16902;50.816;12.828;2023-02-28T07:46:46;99024.72;;;-3.04;100.00
30081;BME280;16902;50.816;12.828;2023-02-28T07:51:47;99030.81;;;-2.88;100.00
30081;BME280;16902;50.816;12.828;2023-02-28T07:56:51;99026.66;;;-2.70;100.00
30081;BME280;16902;50.816;12.828;2023-02-28T08:01:53;99024.59;;;-2.62;100.00
30081;BME280;16902;50.816;12.828;2023-02-28T08:06:55;99025.50;;;-2.63;100.00
30081;BME280;16902;50.816;12.828;2023-02-28T08:11:57;99025.81;;;-2.50;100.00
30081;BME280;16902;50.816;12.828;2023-02-28T08:16:59;99025.00;;;-2.13;100.00
30081;BME280;16902;50.816;12.828;2023-02-28T08:22:02;99026.59;;;-2.10;100.00
30081;BME280;16902;50.816;12.828;2023-02-28T08:27:03;99029.75;;;-2.05;100.00
30081;BME280;16902;50.816;12.828;2023-02-28T08:32:06;99028.84;;;-1.85;100.00
30081;BME280;16902;50.816;12.828;2023-02-28T08:37:24;99032.06;;;-1.45;100.00
30081;BME280;16902;50.816;12.828;2023-02-28T08:42:26;99030.59;;;-1.49;100.00
30081;BME280;16902;50.816;12.828;2023-02-28T08:47:28;99042.16;;;-1.42;100.00
30081;BME280;16902;50.816;12.828;2023-02-28T08:52:30;99048.28;;;-1.10;100.00
30081;BME280;16902;50.816;12.828;2023-02-28T08:57:32;99050.22;;;-0.81;100.00
30081;BME280;16902;50.816;12.828;2023-02-28T09:02:34;99049.25;;;-0.95;100.00
30081;BME280;16902;50.816;12.828;2023-02-28T09:07:36;99052.13;;;-1.01;100.00
30081;BME280;16902;50.816;12.828;2023-02-28T09:12:38;99047.06;;;-1.03;100.00
30081;BME280;16902;50.816;12.828;2023-02-28T09:17:40;99040.91;;;-0.99;100.00
30081;BME280;16902;50.816;12.828;2023-02-28T09:22:42;99050.22;;;-1.15;100.00
30081;BME280;16902;50.816;12.828;2023-02-28T09:27:44;99049.78;;;-1.06;100.00
30081;BME280;16902;50.816;12.828;2023-02-28T09:32:47;99045.94;;;-0.80;100.00
30081;BME280;16902;50.816;12.828;2023-02-28T09:37:53;99052.50;;;-0.59;100.00
30081;BME280;16902;50.816;12.828;2023-02-28T09:42:57;99051.00;;;-0.30;100.00
30081;BME280;16902;50.816;12.828;2023-02-28T09:48:16;99042.47;;;-0.13;100.00
30081;BME280;16902;50.816;12.828;2023-02-28T09:53:28;99043.16;;;-0.09;100.00
30081;BME280;16902;50.816;12.828;2023-02-28T09:59:00;99046.91;;;-0.32;100.00
30081;BME280;16902;50.816;12.828;2023-02-28T10:09:38;99036.44;;;0.04;100.00
30081;BME280;16902;50.816;12.828;2023-02-28T10:14:45;99045.81;;;0.05;100.00
30081;BME280;16902;50.816;12.828;2023-02-28T10:25:25;99043.53;;;0.46;100.00
30081;BME280;16902;50.816;12.828;2023-02-28T10:30:28;99042.94;;;0.73;100.00
30081;BME280;16902;50.816;12.828;2023-02-28T10:35:29;99035.91;;;0.61;100.00
30081;BME280;16902;50.816;12.828;2023-02-28T10:40:35;99032.13;;;0.68;100.00
30081;BME280;16902;50.816;12.828;2023-02-28T10:45:37;99033.59;;;0.86;100.00
30081;BME280;16902;50.816;12.828;2023-02-28T10:50:44;99031.75;;;1.04;100.00
30081;BME280;16902;50.816;12.828;2023-02-28T10:56:17;99025.00;;;1.17;100.00
30081;BME280;16902;50.816;12.828;2023-02-28T11:06:40;99020.59;;;0.75;100.00
30081;BME280;16902;50.816;12.828;2023-02-28T11:11:44;99022.03;;;1.09;100.00
30081;BME280;16902;50.816;12.828;2023-02-28T11:16:47;99015.03;;;2.52;100.00
30081;BME280;16902;50.816;12.828;2023-02-28T11:21:56;99010.72;;;3.44;100.00
30081;BME280;16902;50.816;12.828;2023-02-28T11:26:59;99001.53;;;3.14;100.00
30081;BME280;16902;50.816;12.828;2023-02-28T11:37:05;98998.94;;;4.74;100.00
30081;BME280;16902;50.816;12.828;2023-02-28T11:52:54;98994.53;;;5.22;100.00
30081;BME280;16902;50.816;12.828;2023-02-28T11:58:07;98997.28;;;4.13;100.00
30081;BME280;16902;50.816;12.828;2023-02-28T12:03:31;99010.28;;;4.84;100.00
30081;BME280;16902;50.816;12.828;2023-02-28T12:08:56;98990.75;;;5.26;100.00
30081;BME280;16902;50.816;12.828;2023-02-28T12:30:30;98982.41;;;5.90;100.00
30081;BME280;16902;50.816;12.828;2023-02-28T12:35:37;98972.22;;;6.85;100.00
30081;BME280;16902;50.816;12.828;2023-02-28T12:45:53;98977.47;;;8.75;100.00
30081;BME280;16902;50.816;12.828;2023-02-28T12:50:58;98969.66;;;8.75;100.00
30081;BME280;16902;50.816;12.828;2023-02-28T13:12:25;98970.81;;;10.57;90.26
30081;BME280;16902;50.816;12.828;2023-02-28T13:17:28;98965.16;;;8.87;98.44
30081;BME280;16902;50.816;12.828;2023-02-28T13:27:41;98962.16;;;10.57;78.12
30081;BME280;16902;50.816;12.828;2023-02-28T13:32:43;98962.66;;;9.79;75.25
30081;BME280;16902;50.816;12.828;2023-02-28T13:37:47;98961.41;;;8.02;93.70
30081;BME280;16902;50.816;12.828;2023-02-28T13:42:51;98958.66;;;7.13;95.99
30081;BME280;16902;50.816;12.828;2023-02-28T13:48:04;98958.06;;;8.60;87.54
30081;BME280;16902;50.816;12.828;2023-02-28T14:09:25;98946.03;;;5.71;100.00
30081;BME280;16902;50.816;12.828;2023-02-28T14:19:38;98945.94;;;1.94;100.00
30081;BME280;16902;50.816;12.828;2023-02-28T14:40:52;98913.97;;;1.15;100.00
30081;BME280;16902;50.816;12.828;2023-02-28T14:46:02;98904.06;;;0.81;100.00
30081;BME280;16902;50.816;12.828;2023-02-28T14:51:04;98915.88;;;0.69;100.00
30081;BME280;16902;50.816;12.828;2023-02-28T14:56:17;98911.19;;;0.75;100.00
30081;BME280;16902;50.816;12.828;2023-02-28T15:01:21;98912.44;;;0.54;100.00
30081;BME280;16902;50.816;12.828;2023-02-28T15:06:23;98907.53;;;0.65;100.00
30081;BME280;16902;50.816;12.828;2023-02-28T15:11:29;98913.63;;;0.63;100.00
30081;BME280;16902;50.816;12.828;2023-02-28T15:16:37;98910.47;;;0.73;100.00
30081;BME280;16902;50.816;12.828;2023-02-28T15:21:44;98911.94;;;0.63;100.00
30081;BME280;16902;50.816;12.828;2023-02-28T15:26:53;98915.97;;;0.37;100.00
30081;BME280;16902;50.816;12.828;2023-02-28T15:32:00;98916.41;;;0.30;100.00
30081;BME280;16902;50.816;12.828;2023-02-28T15:37:23;98916.56;;;0.27;100.00
30081;BME280;16902;50.816;12.828;2023-02-28T15:42:29;98915.69;;;0.12;100.00
30081;BME280;16902;50.816;12.828;2023-02-28T15:47:32;98919.75;;;0.16;100.00
30081;BME280;16902;50.816;12.828;2023-02-28T15:52:39;98928.84;;;0.06;100.00
30081;BME280;16902;50.816;12.828;2023-02-28T15:57:44;98924.16;;;-0.18;100.00
30081;BME280;16902;50.816;12.828;2023-02-28T16:02:47;98927.13;;;-0.26;100.00
30081;BME280;16902;50.816;12.828;2023-02-28T16:07:49;98923.56;;;-0.39;100.00
30081;BME280;16902;50.816;12.828;2023-02-28T16:12:53;98936.63;;;-0.43;100.00
30081;BME280;16902;50.816;12.828;2023-02-28T16:17:56;98932.31;;;-0.59;100.00
30081;BME280;16902;50.816;12.828;2023-02-28T16:22:58;98935.53;;;-0.71;100.00
30081;BME280;16902;50.816;12.828;2023-02-28T16:28:04;98936.81;;;-0.80;100.00
30081;BME280;16902;50.816;12.828;2023-02-28T16:33:09;98931.22;;;-0.86;100.00
30081;BME280;16902;50.816;12.828;2023-02-28T16:38:11;98941.00;;;-0.94;100.00
30081;BME280;16902;50.816;12.828;2023-02-28T16:43:17;98939.81;;;-1.05;100.00
30081;BME280;16902;50.816;12.828;2023-02-28T16:48:20;98938.63;;;-1.15;100.00
30081;BME280;16902;50.816;12.828;2023-02-28T16:53:22;98944.41;;;-1.28;100.00
30081;BME280;16902;50.816;12.828;2023-02-28T16:58:23;98953.13;;;-1.33;100.00
30081;BME280;16902;50.816;12.828;2023-02-28T17:03:28;98947.50;;;-1.39;100.00
30081;BME280;16902;50.816;12.828;2023-02-28T17:08:34;98955.63;;;-1.48;100.00
30081;BME280;16902;50.816;12.828;2023-02-28T17:13:36;98962.00;;;-1.57;100.00
30081;BME280;16902;50.816;12.828;2023-02-28T17:18:37;98961.25;;;-1.59;100.00
30081;BME280;16902;50.816;12.828;2023-02-28T17:23:40;98964.25;;;-1.68;100.00
30081;BME280;16902;50.816;12.828;2023-02-28T17:28:42;98961.00;;;-1.72;100.00
30081;BME280;16902;50.816;12.828;2023-02-28T17:33:43;98968.53;;;-1.69;100.00
30081;BME280;16902;50.816;12.828;2023-02-28T17:38:45;98969.69;;;-1.93;100.00
30081;BME280;16902;50.816;12.828;2023-02-28T17:43:47;98963.91;;;-2.16;100.00
30081;BME280;16902;50.816;12.828;2023-02-28T17:48:52;98967.38;;;-2.36;100.00
30081;BME280;16902;50.816;12.828;2023-02-28T17:53:54;98961.84;;;-2.45;100.00
30081;BME280;16902;50.816;12.828;2023-02-28T17:58:56;98966.34;;;-2.50;100.00
30081;BME280;16902;50.816;12.828;2023-02-28T18:03:58;98971.84;;;-2.60;100.00
30081;BME280;16902;50.816;12.828;2023-02-28T18:09:00;98964.59;;;-2.69;100.00
30081;BME280;16902;50.816;12.828;2023-02-28T18:14:02;98960.53;;;-2.73;100.00
30081;BME280;16902;50.816;12.828;2023-02-28T18:19:04;98963.38;;;-2.80;100.00
30081;BME280;16902;50.816;12.828;2023-02-28T18:24:07;98957.75;;;-2.87;100.00
30081;BME280;16902;50.816;12.828;2023-02-28T18:29:24;98950.09;;;-2.87;100.00
30081;BME280;16902;50.816;12.828;2023-02-28T18:34:26;98941.84;;;-2.73;100.00
30081;BME280;16902;50.816;12.828;2023-02-28T18:39:29;98944.88;;;-2.84;100.00
30081;BME280;16902;50.816;12.828;2023-02-28T18:44:31;98949.66;;;-2.97;100.00
30081;BME280;16902;50.816;12.828;2023-02-28T18:49:33;98942.94;;;-2.98;100.00
30081;BME280;16902;50.816;12.828;2023-02-28T18:54:36;98939.13;;;-3.08;100.00
30081;BME280;16902;50.816;12.828;2023-02-28T18:59:38;98935.50;;;-3.23;100.00
30081;BME280;16902;50.816;12.828;2023-02-28T19:04:40;98936.06;;;-3.37;100.00
30081;BME280;16902;50.816;12.828;2023-02-28T19:09:42;98950.78;;;-3.43;100.00
30081;BME280;16902;50.816;12.828;2023-02-28T19:14:44;98946.00;;;-3.51;100.00
30081;BME280;16902;50.816;12.828;2023-02-28T19:19:47;98938.66;;;-3.58;100.00
30081;BME280;16902;50.816;12.828;2023-02-28T19:24:49;98932.88;;;-3.62;100.00
30081;BME280;16902;50.816;12.828;2023-02-28T19:29:51;98937.84;;;-3.59;100.00
30081;BME280;16902;50.816;12.828;2023-02-28T19:34:53;98934.00;;;-3.69;100.00
30081;BME280;16902;50.816;12.828;2023-02-28T19:39:55;98941.81;;;-3.74;100.00
30081;BME280;16902;50.816;12.828;2023-02-28T19:44:58;98947.28;;;-3.83;100.00
30081;BME280;16902;50.816;12.828;2023-02-28T19:50:00;98946.69;;;-3.90;100.00
30081;BME280;16902;50.816;12.828;2023-02-28T19:55:02;98948.59;;;-3.95;100.00
30081;BME280;16902;50.816;12.828;2023-02-28T20:00:04;98950.50;;;-4.00;100.00
30081;BME280;16902;50.816;12.828;2023-02-28T20:05:12;98948.84;;;-4.01;100.00
30081;BME280;16902;50.816;12.828;2023-02-28T20:10:14;98946.94;;;-3.96;100.00
30081;BME280;16902;50.816;12.828;2023-02-28T20:15:16;98947.53;;;-3.89;100.00
30081;BME280;16902;50.816;12.828;2023-02-28T20:20:18;98957.63;;;-3.88;100.00
30081;BME280;16902;50.816;12.828;2023-02-28T20:25:20;98957.16;;;-3.75;100.00
30081;BME280;16902;50.816;12.828;2023-02-28T20:30:22;98954.25;;;-3.66;100.00
30081;BME280;16902;50.816;12.828;2023-02-28T20:35:24;98962.66;;;-3.64;100.00
30081;BME280;16902;50.816;12.828;2023-02-28T20:40:26;98961.00;;;-3.65;100.00
30081;BME280;16902;50.816;12.828;2023-02-28T20:45:28;98961.88;;;-3.66;100.00
30081;BME280;16902;50.816;12.828;2023-02-28T20:50:30;98967.88;;;-3.67;100.00
30081;BME280;16902;50.816;12.828;2023-02-28T20:55:32;98973.81;;;-3.68;100.00
30081;BME280;16902;50.816;12.828;2023-02-28T21:00:35;98971.47;;;-3.73;100.00
30081;BME280;16902;50.816;12.828;2023-02-28T21:05:38;98973.81;;;-3.68;100.00
30081;BME280;16902;50.816;12.828;2023-02-28T21:10:40;98958.56;;;-3.68;100.00
30081;BME280;16902;50.816;12.828;2023-02-28T21:15:41;98957.16;;;-3.75;100.00
30081;BME280;16902;50.816;12.828;2023-02-28T21:20:43;98955.09;;;-3.88;100.00
30081;BME280;16902;50.816;12.828;2023-02-28T21:25:45;98952.88;;;-3.95;100.00
30081;BME280;16902;50.816;12.828;2023-02-28T21:30:47;98958.47;;;-4.09;100.00
30081;BME280;16902;50.816;12.828;2023-02-28T21:35:49;98972.25;;;-4.15;100.00
30081;BME280;16902;50.816;12.828;2023-02-28T21:40:52;98969.63;;;-4.35;100.00
30081;BME280;16902;50.816;12.828;2023-02-28T21:45:54;98966.00;;;-4.51;100.00
30081;BME280;16902;50.816;12.828;2023-02-28T21:51:01;98967.94;;;-4.58;100.00
30081;BME280;16902;50.816;12.828;2023-02-28T21:56:05;98970.69;;;-4.64;100.00
30081;BME280;16902;50.816;12.828;2023-02-28T22:01:13;98970.47;;;-4.81;100.00
30081;BME280;16902;50.816;12.828;2023-02-28T22:06:18;98968.91;;;-4.85;100.00
30081;BME280;16902;50.816;12.828;2023-02-28T22:11:21;98964.72;;;-4.86;100.00
30081;BME280;16902;50.816;12.828;2023-02-28T22:16:25;98959.13;;;-4.96;100.00
30081;BME280;16902;50.816;12.828;2023-02-28T22:21:32;98968.56;;;-5.00;100.00
30081;BME280;16902;50.816;12.828;2023-02-28T22:26:35;98971.31;;;-5.06;100.00
30081;BME280;16902;50.816;12.828;2023-02-28T22:31:37;98973.34;;;-5.15;100.00
30081;BME280;16902;50.816;12.828;2023-02-28T22:36:41;98970.84;;;-5.17;100.00
30081;BME280;16902;50.816;12.828;2023-02-28T22:41:43;98968.03;;;-5.34;100.00
30081;BME280;16902;50.816;12.828;2023-02-28T22:46:45;98963.41;;;-5.22;100.00
30081;BME280;16902;50.816;12.828;2023-02-28T22:51:47;98963.25;;;-5.17;100.00
30081;BME280;16902;50.816;12.828;2023-02-28T22:56:49;98960.75;;;-5.19;100.00
30081;BME280;16902;50.816;12.828;2023-02-28T23:01:50;98958.50;;;-5.28;100.00
30081;BME280;16902;50.816;12.828;2023-02-28T23:06:52;98966.50;;;-5.38;100.00
30081;BME280;16902;50.816;12.828;2023-02-28T23:11:54;98959.84;;;-5.43;100.00
30081;BME280;16902;50.816;12.828;2023-02-28T23:16:56;98965.81;;;-5.44;100.00
30081;BME280;16902;50.816;12.828;2023-02-28T23:21:59;98961.59;;;-5.70;100.00
30081;BME280;16902;50.816;12.828;2023-02-28T23:27:03;98966.13;;;-5.79;100.00
30081;BME280;16902;50.816;12.828;2023-02-28T23:32:05;98963.31;;;-5.97;100.00
30081;BME280;16902;50.816;12.828;2023-02-28T23:37:07;98966.72;;;-5.98;100.00
30081;BME280;16902;50.816;12.828;2023-02-28T23:42:10;98964.03;;;-5.93;100.00
30081;BME280;16902;50.816;12.828;2023-02-28T23:47:12;98957.06;;;-6.13;100.00
30081;BME280;16902;50.816;12.828;2023-02-28T23:52:15;98963.16;;;-6.18;100.00
30081;BME280;16902;50.816;12.828;2023-02-28T23:57:17;98975.28;;;-6.30;100.00
